Time;durP1;ratioP1;P1;durP2;ratioP2;P2;SDS_P1;SDS_P2;PMS_P1;PMS_P2;Temp;Humidity;BMP_temperature;BMP_pressure;BME280_temperature;BME280_humidity;BME280_pressure;Samples;Min_cycle;Max_cycle;Signal;HPM_P1;HPM_P2
2023/07/13 00:01:19;;;;;;;15.02;4.57;;;17.30;99.90;;;;;;5092182;28;20039;-64
2023/07/13 00:03:45;;;;;;;15.13;3.60;;;17.20;99.90;;;;;;5092592;28;20396;-64
2023/07/13 00:06:11;;;;;;;16.73;4.45;;;17.20;99.90;;;;;;5092687;28;20065;-64
2023/07/13 00:08:37;;;;;;;14.35;4.28;;;17.20;99.90;;;;;;5092890;28;20032;-62
2023/07/13 00:11:03;;;;;;;12.05;3.50;;;17.20;99.90;;;;;;5092383;28;20048;-63
2023/07/13 00:13:30;;;;;;;11.88;3.83;;;17.20;99.90;;;;;;5092427;28;20039;-63
2023/07/13 00:15:58;;;;;;;16.35;3.80;;;17.10;99.90;;;;;;5091568;28;20469;-63
2023/07/13 00:18:24;;;;;;;10.52;3.47;;;17.10;99.90;;;;;;5092282;28;20047;-63
2023/07/13 00:20:50;;;;;;;11.35;2.92;;;17.00;99.90;;;;;;5092051;28;20443;-63
2023/07/13 00:23:17;;;;;;;11.43;3.63;;;17.00;99.90;;;;;;5091590;28;20095;-63
2023/07/13 00:25:42;;;;;;;7.82;2.10;;;17.00;99.90;;;;;;5092219;28;20050;-63
2023/07/13 00:28:08;;;;;;;8.23;3.00;;;17.00;99.90;;;;;;5091514;28;20048;-63
2023/07/13 00:30:34;;;;;;;8.10;2.45;;;17.00;99.90;;;;;;5092189;28;20078;-63
2023/07/13 00:33:01;;;;;;;8.32;2.35;;;16.90;99.90;;;;;;5075220;28;20576;-63
2023/07/13 00:35:30;;;;;;;6.65;2.10;;;17.00;99.90;;;;;;5091719;28;20087;-63
2023/07/13 00:37:56;;;;;;;7.55;2.75;;;16.90;99.90;;;;;;5092934;28;20043;-63
2023/07/13 00:40:22;;;;;;;5.30;1.98;;;16.90;99.90;;;;;;5091724;28;20124;-63
2023/07/13 00:42:47;;;;;;;6.88;2.10;;;16.90;99.90;;;;;;5092434;28;20136;-63
2023/07/13 00:45:13;;;;;;;9.60;2.35;;;16.90;99.90;;;;;;5125756;27;20056;-63
2023/07/13 00:47:43;;;;;;;4.95;1.90;;;16.90;99.90;;;;;;5093359;28;20052;-63
2023/07/13 00:50:14;;;;;;;4.93;1.85;;;16.90;99.90;;;;;;5125335;27;20102;-62
2023/07/13 00:52:44;;;;;;;9.55;2.88;;;16.80;99.90;;;;;;5091740;28;20473;-63
2023/07/13 00:55:12;;;;;;;8.73;2.03;;;16.80;99.90;;;;;;5093266;28;20047;-62
2023/07/13 00:57:40;;;;;;;5.88;1.40;;;16.80;99.90;;;;;;5092428;28;20043;-63
2023/07/13 01:00:09;;;;;;;6.38;2.08;;;16.80;99.90;;;;;;5093156;28;20374;-63
2023/07/13 01:02:45;;;;;;;5.72;2.03;;;16.80;99.90;;;;;;5091357;28;20044;-63
2023/07/13 01:05:17;;;;;;;5.18;1.20;;;16.80;99.90;;;;;;5092202;28;20036;-63
2023/07/13 01:07:45;;;;;;;6.82;1.48;;;16.80;99.90;;;;;;5091734;28;20488;-63
2023/07/13 01:10:12;;;;;;;5.93;1.45;;;16.70;99.90;;;;;;5091419;28;20048;-63
2023/07/13 01:12:38;;;;;;;2.72;1.20;;;16.70;99.90;;;;;;5092153;28;20044;-63
2023/07/13 01:15:05;;;;;;;4.97;1.50;;;16.70;99.90;;;;;;5125380;27;20042;-63
2023/07/13 01:17:33;;;;;;;4.75;1.25;;;16.70;99.90;;;;;;5090794;28;20451;-63
2023/07/13 01:20:00;;;;;;;2.83;1.27;;;16.70;99.90;;;;;;5091485;28;20392;-63
2023/07/13 01:22:26;;;;;;;4.22;1.50;;;16.70;99.90;;;;;;5092536;28;20040;-63
2023/07/13 01:24:54;;;;;;;5.30;1.60;;;16.70;99.90;;;;;;5091366;28;20093;-63
2023/07/13 01:27:25;;;;;;;4.20;1.23;;;16.70;99.90;;;;;;5090832;28;20131;-63
2023/07/13 01:29:52;;;;;;;4.88;1.10;;;16.70;99.90;;;;;;5091073;28;20082;-63
2023/07/13 01:32:23;;;;;;;4.75;1.60;;;16.70;99.90;;;;;;5091721;28;20047;-63
2023/07/13 01:34:56;;;;;;;4.88;1.23;;;16.70;99.90;;;;;;5092513;28;20040;-63
2023/07/13 01:37:23;;;;;;;3.45;1.33;;;16.70;99.90;;;;;;5091168;28;20054;-63
2023/07/13 01:39:49;;;;;;;4.25;1.58;;;16.60;99.90;;;;;;5091017;28;20040;-63
2023/07/13 01:42:15;;;;;;;8.77;1.73;;;16.60;99.90;;;;;;5091028;28;20054;-63
2023/07/13 01:44:41;;;;;;;6.38;1.55;;;16.60;99.90;;;;;;5124814;27;20098;-63
2023/07/13 01:47:07;;;;;;;4.22;1.08;;;16.50;99.90;;;;;;5124472;27;20083;-63
2023/07/13 01:49:33;;;;;;;4.38;1.20;;;16.50;99.90;;;;;;5090719;28;20048;-63
2023/07/13 01:51:58;;;;;;;7.05;1.80;;;16.50;99.90;;;;;;5124971;28;20048;-63
2023/07/13 01:54:24;;;;;;;3.60;1.20;;;16.50;99.90;;;;;;5091352;28;20485;-63
2023/07/13 01:56:50;;;;;;;6.22;1.33;;;16.40;99.90;;;;;;5091742;28;20040;-62
2023/07/13 01:59:16;;;;;;;4.80;1.35;;;16.40;99.90;;;;;;5090491;28;20040;-63
2023/07/13 02:01:41;;;;;;;5.20;1.38;;;16.40;99.90;;;;;;5090024;28;20036;-62
2023/07/13 02:04:07;;;;;;;5.68;1.70;;;16.40;99.90;;;;;;5092322;28;20043;-63
2023/07/13 02:06:33;;;;;;;5.20;1.65;;;16.40;99.90;;;;;;5091368;28;20082;-63
2023/07/13 02:08:59;;;;;;;8.38;1.77;;;16.40;99.90;;;;;;5073641;28;20502;-63
2023/07/13 02:11:25;;;;;;;8.60;1.65;;;16.40;99.90;;;;;;5091867;28;20411;-63
2023/07/13 02:13:51;;;;;;;4.55;1.30;;;16.40;99.90;;;;;;5089521;28;20039;-63
2023/07/13 02:16:17;;;;;;;4.43;1.33;;;16.40;99.90;;;;;;5091797;28;20514;-63
2023/07/13 02:18:43;;;;;;;4.75;1.23;;;16.40;99.90;;;;;;5090848;28;20123;-63
2023/07/13 02:21:09;;;;;;;5.55;1.42;;;16.50;99.90;;;;;;5089993;28;20044;-62
2023/07/13 02:23:34;;;;;;;6.22;1.60;;;16.50;99.90;;;;;;5073400;28;20044;-63
2023/07/13 02:26:02;;;;;;;5.18;1.55;;;16.50;99.90;;;;;;5090488;28;20039;-63
2023/07/13 02:28:28;;;;;;;5.25;1.50;;;16.50;99.90;;;;;;5089551;28;20072;-63
2023/07/13 02:30:54;;;;;;;5.38;2.03;;;16.50;99.90;;;;;;5090382;28;20079;-63
2023/07/13 02:33:19;;;;;;;4.85;1.60;;;16.50;99.90;;;;;;5091761;28;20043;-62
2023/07/13 02:35:45;;;;;;;6.88;1.70;;;16.50;99.90;;;;;;5123958;28;20497;-63
2023/07/13 02:38:11;;;;;;;6.18;1.95;;;16.50;99.90;;;;;;5092022;28;20058;-62
2023/07/13 02:40:38;;;;;;;5.85;1.70;;;16.50;99.90;;;;;;5095530;28;20040;-63
2023/07/13 02:43:04;;;;;;;6.57;1.85;;;16.40;99.90;;;;;;5094788;28;20052;-62
2023/07/13 02:45:29;;;;;;;5.63;1.90;;;16.40;99.90;;;;;;5127823;27;20406;-62
2023/07/13 02:47:55;;;;;;;5.97;1.90;;;16.40;99.90;;;;;;5094289;28;20044;-63
2023/07/13 02:50:21;;;;;;;7.10;1.92;;;16.40;99.90;;;;;;5094274;28;20549;-62
2023/07/13 02:52:47;;;;;;;6.82;1.90;;;16.40;99.90;;;;;;5110877;27;20081;-64
2023/07/13 02:55:13;;;;;;;7.00;1.92;;;16.40;99.90;;;;;;5128331;27;20040;-64
2023/07/13 02:57:38;;;;;;;6.18;1.90;;;16.40;99.90;;;;;;5127394;27;20058;-64
2023/07/13 03:00:05;;;;;;;8.98;2.40;;;16.40;99.90;;;;;;5110886;28;20046;-64
2023/07/13 03:02:32;;;;;;;7.35;2.08;;;16.40;99.90;;;;;;5093775;28;20047;-63
2023/07/13 03:04:58;;;;;;;11.95;2.75;;;16.40;99.90;;;;;;5092920;28;20040;-63
2023/07/13 03:07:25;;;;;;;10.05;2.65;;;16.40;99.90;;;;;;5095043;28;20126;-64
2023/07/13 03:09:55;;;;;;;10.98;2.47;;;16.50;99.90;;;;;;5094197;28;20066;-64
2023/07/13 03:12:21;;;;;;;8.93;2.70;;;16.50;99.90;;;;;;5095107;28;20028;-63
2023/07/13 03:14:47;;;;;;;10.15;2.92;;;16.40;99.90;;;;;;5093245;28;20039;-64
2023/07/13 03:17:12;;;;;;;5.68;2.53;;;16.40;99.90;;;;;;5092649;28;20427;-63
2023/07/13 03:19:38;;;;;;;9.90;3.15;;;16.40;99.90;;;;;;5128054;27;20032;-63
2023/07/13 03:22:04;;;;;;;7.65;2.63;;;16.30;99.90;;;;;;5076511;28;20043;-64
2023/07/13 03:24:30;;;;;;;9.10;2.78;;;16.30;99.90;;;;;;5092606;28;20040;-64
2023/07/13 03:26:55;;;;;;;10.45;2.72;;;16.30;99.90;;;;;;5094552;28;20042;-64
2023/07/13 03:29:21;;;;;;;16.05;3.22;;;16.30;99.90;;;;;;5093427;28;20072;-64
2023/07/13 03:31:47;;;;;;;13.38;3.05;;;16.20;99.90;;;;;;5093658;28;20476;-64
2023/07/13 03:34:12;;;;;;;8.95;2.50;;;16.20;99.90;;;;;;5109836;28;20028;-64
2023/07/13 03:36:38;;;;;;;15.10;3.35;;;16.20;99.90;;;;;;5110638;28;20078;-64
2023/07/13 03:39:08;;;;;;;11.50;2.90;;;16.10;99.90;;;;;;5092443;28;20036;-64
2023/07/13 03:41:34;;;;;;;9.52;3.40;;;16.10;99.90;;;;;;5093429;28;20047;-64
2023/07/13 03:44:00;;;;;;;11.55;3.78;;;16.10;99.90;;;;;;5094363;28;20036;-64
2023/07/13 03:46:25;;;;;;;9.90;3.63;;;16.10;99.90;;;;;;5126892;27;20491;-64
2023/07/13 03:48:51;;;;;;;13.25;3.85;;;16.00;99.90;;;;;;5093578;28;20061;-64
2023/07/13 03:51:17;;;;;;;12.15;3.58;;;16.00;99.90;;;;;;5093075;28;20039;-64
2023/07/13 03:53:45;;;;;;;8.77;3.20;;;16.00;99.90;;;;;;5091882;28;20036;-64
2023/07/13 03:56:11;;;;;;;13.35;3.65;;;15.90;99.90;;;;;;5093172;28;20044;-64
2023/07/13 03:58:41;;;;;;;13.30;4.40;;;16.00;99.90;;;;;;5094275;28;20081;-64
2023/07/13 04:01:09;;;;;;;10.07;2.95;;;15.90;99.90;;;;;;5092262;28;20046;-64
2023/07/13 04:03:35;;;;;;;11.35;3.17;;;15.90;99.90;;;;;;5092697;28;20044;-63
2023/07/13 04:06:02;;;;;;;10.68;3.20;;;15.90;99.90;;;;;;5092568;28;20508;-63
2023/07/13 04:08:31;;;;;;;13.57;3.60;;;15.90;99.90;;;;;;5092013;28;20461;-63
2023/07/13 04:10:58;;;;;;;10.80;4.03;;;15.90;99.90;;;;;;5092724;28;20051;-62
2023/07/13 04:13:24;;;;;;;13.07;4.15;;;15.90;99.90;;;;;;5074675;28;20043;-63
2023/07/13 04:15:51;;;;;;;12.00;3.90;;;15.90;99.90;;;;;;5126725;27;20040;-63
2023/07/13 04:18:17;;;;;;;9.73;3.70;;;15.90;99.90;;;;;;5075229;28;20047;-63
2023/07/13 04:20:42;;;;;;;13.35;3.60;;;15.90;99.90;;;;;;5091149;28;20044;-63
2023/07/13 04:23:08;;;;;;;12.18;3.97;;;16.00;99.90;;;;;;5093722;28;20048;-63
2023/07/13 04:25:34;;;;;;;9.27;3.55;;;15.90;99.90;;;;;;5126318;27;20050;-62
2023/07/13 04:28:00;;;;;;;9.93;3.70;;;15.90;99.90;;;;;;5092712;28;20044;-63
2023/07/13 04:30:26;;;;;;;11.57;3.58;;;16.00;99.90;;;;;;5092118;28;20401;-63
2023/07/13 04:32:52;;;;;;;8.13;3.75;;;16.00;99.90;;;;;;5093074;28;20036;-63
2023/07/13 04:35:20;;;;;;;10.52;4.03;;;16.00;99.90;;;;;;5092475;28;20047;-63
2023/07/13 04:37:49;;;;;;;11.82;3.63;;;16.00;99.90;;;;;;5093138;28;20035;-62
2023/07/13 04:40:19;;;;;;;11.50;4.05;;;16.00;99.90;;;;;;5091897;28;20492;-63
2023/07/13 04:42:46;;;;;;;10.77;4.05;;;16.00;99.90;;;;;;5092354;28;20515;-63
2023/07/13 04:45:13;;;;;;;8.38;3.83;;;16.10;99.90;;;;;;5092122;28;20435;-63
2023/07/13 04:47:39;;;;;;;14.52;4.18;;;16.10;99.90;;;;;;5092005;28;20086;-63
2023/07/13 04:50:06;;;;;;;11.57;4.43;;;16.10;99.90;;;;;;5090700;28;20493;-63
2023/07/13 04:52:32;;;;;;;10.23;3.55;;;16.20;99.90;;;;;;5091908;28;20497;-63
2023/07/13 04:54:59;;;;;;;14.15;4.03;;;16.20;99.90;;;;;;5092554;28;20044;-62
2023/07/13 04:57:26;;;;;;;8.95;3.53;;;16.30;99.90;;;;;;5089694;28;20044;-64
2023/07/13 04:59:52;;;;;;;13.20;3.50;;;16.40;99.90;;;;;;5091661;28;20040;-64
2023/07/13 05:02:20;;;;;;;11.48;3.78;;;16.40;99.90;;;;;;5090748;28;20044;-64
2023/07/13 05:04:48;;;;;;;15.10;4.40;;;16.50;99.90;;;;;;5090438;28;20075;-64
2023/07/13 05:07:15;;;;;;;11.07;4.53;;;16.50;99.90;;;;;;5108216;28;20039;-64
2023/07/13 05:09:40;;;;;;;11.20;3.35;;;16.60;99.90;;;;;;5090682;28;20123;-64
2023/07/13 05:12:08;;;;;;;7.65;3.17;;;16.70;99.90;;;;;;5074604;28;20119;-64
2023/07/13 05:14:34;;;;;;;9.73;4.10;;;16.80;99.90;;;;;;5091158;28;20525;-64
2023/07/13 05:16:59;;;;;;;13.57;3.88;;;16.80;99.90;;;;;;5089277;28;20048;-64
2023/07/13 05:19:25;;;;;;;9.55;4.20;;;16.90;99.90;;;;;;5092063;28;20043;-65
2023/07/13 05:21:51;;;;;;;13.60;4.13;;;17.00;99.90;;;;;;5090836;28;20036;-64
2023/07/13 05:24:17;;;;;;;7.28;3.55;;;17.10;99.90;;;;;;5085158;28;20038;-65
2023/07/13 05:26:42;;;;;;;7.05;3.45;;;17.10;99.90;;;;;;5090795;28;20496;-65
2023/07/13 05:29:08;;;;;;;9.82;3.67;;;17.20;99.90;;;;;;5125142;27;20086;-64
2023/07/13 05:31:34;;;;;;;10.05;3.40;;;17.30;99.90;;;;;;5090182;28;20043;-64
2023/07/13 05:34:00;;;;;;;11.40;3.30;;;17.50;99.90;;;;;;5089289;28;20036;-65
2023/07/13 05:36:25;;;;;;;8.05;3.03;;;17.50;99.90;;;;;;5092107;28;20042;-64
2023/07/13 05:38:51;;;;;;;10.85;3.30;;;17.60;99.90;;;;;;5089717;28;20036;-64
2023/07/13 05:41:17;;;;;;;9.02;3.28;;;17.70;99.90;;;;;;5124961;27;20040;-64
2023/07/13 05:43:42;;;;;;;10.60;2.90;;;17.80;99.90;;;;;;5090023;28;20369;-64
2023/07/13 05:46:08;;;;;;;9.63;2.85;;;17.90;99.90;;;;;;5123310;27;20048;-65
2023/07/13 05:48:34;;;;;;;10.18;3.25;;;18.00;99.90;;;;;;5107458;28;20040;-64
2023/07/13 05:51:01;;;;;;;8.73;3.10;;;18.10;99.90;;;;;;5124691;27;20054;-64
2023/07/13 05:53:27;;;;;;;11.93;3.15;;;18.10;99.90;;;;;;5091212;28;20060;-64
2023/07/13 05:55:55;;;;;;;8.30;2.88;;;18.20;99.90;;;;;;5073762;28;20451;-64
2023/07/13 05:58:21;;;;;;;7.65;2.75;;;18.30;99.90;;;;;;5089835;28;20127;-64
2023/07/13 06:00:48;;;;;;;11.25;2.75;;;18.40;99.90;;;;;;5068077;28;20082;-62
2023/07/13 06:03:16;;;;;;;5.68;2.22;;;18.40;99.90;;;;;;5067983;28;20113;-67
2023/07/13 06:05:41;;;;;;;8.05;2.53;;;18.50;99.90;;;;;;5087418;28;20044;-64
2023/07/13 06:08:07;;;;;;;7.80;2.85;;;18.50;99.90;;;;;;5122232;28;20448;-60
2023/07/13 06:10:37;;;;;;;6.47;2.80;;;18.60;99.90;;;;;;5087352;28;20544;-60
2023/07/13 06:13:03;;;;;;;6.45;2.33;;;18.60;99.90;;;;;;5090672;28;20101;-60
2023/07/13 06:15:29;;;;;;;11.07;3.03;;;18.70;99.90;;;;;;5125817;27;20054;-61
2023/07/13 06:17:55;;;;;;;8.13;2.53;;;18.70;99.90;;;;;;5093401;28;20483;-62
2023/07/13 06:20:20;;;;;;;8.55;2.55;;;18.80;99.90;;;;;;5094705;28;20036;-61
2023/07/13 06:22:46;;;;;;;7.05;2.17;;;18.80;99.90;;;;;;5092694;28;20048;-62
2023/07/13 06:25:12;;;;;;;9.23;2.42;;;18.80;99.90;;;;;;5091851;28;20043;-62
2023/07/13 06:27:38;;;;;;;6.70;1.98;;;18.90;99.90;;;;;;5092012;28;20036;-62
2023/07/13 06:30:04;;;;;;;5.20;2.05;;;18.90;99.90;;;;;;5091270;28;20044;-62
2023/07/13 06:32:30;;;;;;;5.47;1.92;;;19.00;99.90;;;;;;5090672;28;20044;-61
2023/07/13 06:34:55;;;;;;;5.72;1.75;;;19.00;99.90;;;;;;5125384;27;20040;-61
2023/07/13 06:37:21;;;;;;;6.30;2.05;;;19.00;99.90;;;;;;5116500;27;20541;-61
2023/07/13 06:39:47;;;;;;;8.07;2.25;;;19.10;99.90;;;;;;5071648;28;20040;-62
2023/07/13 06:42:13;;;;;;;6.63;1.92;;;19.10;99.90;;;;;;5070936;28;20051;-62
2023/07/13 06:44:38;;;;;;;4.95;2.22;;;19.20;99.90;;;;;;5072779;28;20049;-61
2023/07/13 06:47:05;;;;;;;7.90;2.28;;;19.20;99.90;;;;;;5098049;28;20166;-61
2023/07/13 06:49:31;;;;;;;7.88;2.28;;;19.20;99.90;;;;;;5111902;28;20089;-62
2023/07/13 06:51:56;;;;;;;6.53;2.08;;;19.20;99.90;;;;;;5092175;28;20044;-62
2023/07/13 06:54:22;;;;;;;6.22;1.63;;;19.20;99.90;;;;;;5091071;28;20036;-63
2023/07/13 06:56:48;;;;;;;7.80;2.50;;;19.30;99.90;;;;;;5090783;28;20032;-63
2023/07/13 06:59:13;;;;;;;4.38;1.90;;;19.30;99.90;;;;;;5121853;27;20816;-63
2023/07/13 07:01:40;;;;;;;6.50;1.90;;;19.30;99.90;;;;;;5098382;28;20481;-63
2023/07/13 07:04:06;;;;;;;6.55;1.70;;;19.40;99.90;;;;;;5091263;28;20075;-64
2023/07/13 07:06:32;;;;;;;6.22;1.63;;;19.50;99.90;;;;;;5090828;28;20064;-64
2023/07/13 07:08:58;;;;;;;4.93;1.30;;;19.50;99.90;;;;;;5124096;27;20048;-63
2023/07/13 07:11:25;;;;;;;4.47;1.63;;;19.50;99.90;;;;;;5090548;28;20028;-63
2023/07/13 07:13:53;;;;;;;4.40;1.60;;;19.50;99.90;;;;;;5091537;28;20034;-62
2023/07/13 07:49:39;;;;;;;5.68;1.95;;;19.90;99.90;;;;;;5075062;28;20105;-60
2023/07/13 07:52:05;;;;;;;5.45;1.60;;;19.80;99.90;;;;;;5072967;28;20047;-60
2023/07/13 07:54:31;;;;;;;6.72;1.92;;;19.70;99.90;;;;;;5089883;28;20085;-58
2023/07/13 07:56:56;;;;;;;9.65;2.58;;;19.60;99.90;;;;;;5091377;28;20036;-61
2023/07/13 07:59:22;;;;;;;5.78;2.00;;;19.60;99.90;;;;;;5089516;28;20081;-60
2023/07/13 08:01:50;;;;;;;7.13;1.90;;;19.70;99.90;;;;;;5093005;28;20036;-60
2023/07/13 08:04:16;;;;;;;5.88;1.92;;;19.60;99.90;;;;;;5093583;28;20044;-61
2023/07/13 08:06:42;;;;;;;4.88;1.50;;;19.60;99.90;;;;;;5092111;28;20048;-62
2023/07/13 08:09:08;;;;;;;6.80;2.35;;;19.50;99.90;;;;;;5094050;28;20442;-61
2023/07/13 08:11:34;;;;;;;5.00;1.55;;;19.50;99.90;;;;;;5093591;28;20480;-64
2023/07/13 08:14:00;;;;;;;4.93;1.85;;;19.50;99.90;;;;;;5071153;28;20048;-64
2023/07/13 08:16:26;;;;;;;5.82;2.00;;;19.50;99.90;;;;;;5092100;28;20048;-63
2023/07/13 08:18:52;;;;;;;5.50;2.10;;;19.50;99.90;;;;;;5126850;27;20051;-66
2023/07/13 08:21:19;;;;;;;6.43;1.83;;;19.50;99.90;;;;;;5093064;28;20043;-61
2023/07/13 08:23:46;;;;;;;5.55;2.30;;;19.50;99.90;;;;;;5093604;28;20044;-67
2023/07/13 08:26:12;;;;;;;6.20;2.30;;;19.60;99.90;;;;;;5094040;28;20040;-64
2023/07/13 08:28:37;;;;;;;6.65;2.10;;;19.80;99.90;;;;;;5092917;28;20036;-63
2023/07/13 08:31:04;;;;;;;6.38;1.92;;;20.00;99.90;;;;;;5092003;28;20452;-60
2023/07/13 08:33:30;;;;;;;5.55;1.75;;;20.20;99.90;;;;;;5091276;28;20044;-62
2023/07/13 08:35:56;;;;;;;5.20;1.83;;;20.30;99.90;;;;;;5090731;28;20047;-62
2023/07/13 08:38:23;;;;;;;6.82;1.77;;;20.50;99.90;;;;;;5090592;28;20044;-62
2023/07/13 08:40:54;;;;;;;5.18;1.90;;;20.50;99.90;;;;;;5074369;28;20085;-62
2023/07/13 08:43:35;;;;;;;6.90;1.98;;;20.50;99.90;;;;;;5091594;28;20031;-62
2023/07/13 08:46:15;;;;;;;6.07;1.92;;;20.50;99.90;;;;;;5090379;28;20075;-62
2023/07/13 08:48:48;;;;;;;4.18;1.70;;;20.40;99.90;;;;;;5090606;28;20048;-62
2023/07/13 08:51:40;;;;;;;5.38;2.00;;;20.30;99.90;;;;;;5092958;28;20405;-61
2023/07/13 08:54:37;;;;;;;5.53;1.70;;;20.40;99.90;;;;;;5093175;28;20047;-61
2023/07/13 08:57:30;;;;;;;6.00;1.80;;;20.60;99.90;;;;;;5069889;28;20051;-62
2023/07/13 08:59:55;;;;;;;5.78;1.95;;;20.60;99.90;;;;;;5074347;28;20120;-62
2023/07/13 09:02:42;;;;;;;5.70;1.92;;;20.70;99.90;;;;;;5094626;28;20090;-62
2023/07/13 09:05:18;;;;;;;5.13;1.60;;;20.90;99.90;;;;;;5092263;28;20040;-62
2023/07/13 09:08:02;;;;;;;5.95;1.30;;;21.00;99.90;;;;;;5090875;28;20117;-62
2023/07/13 09:10:29;;;;;;;5.00;1.47;;;21.10;99.90;;;;;;5089171;28;20536;-62
2023/07/13 09:13:22;;;;;;;4.45;1.25;;;21.10;99.90;;;;;;5091814;28;20289;-61
2023/07/13 09:15:50;;;;;;;4.85;1.55;;;21.00;99.90;;;;;;5090770;28;20040;-62
2023/07/13 09:18:24;;;;;;;4.53;1.27;;;21.10;99.90;;;;;;5090403;28;20064;-61
2023/07/13 09:20:58;;;;;;;3.17;1.20;;;21.10;99.90;;;;;;5091261;28;20122;-61
2023/07/13 09:23:29;;;;;;;3.28;1.45;;;21.20;99.90;;;;;;5089733;28;20054;-61
2023/07/13 09:26:05;;;;;;;4.43;1.30;;;21.20;99.90;;;;;;5090702;28;20488;-62
2023/07/13 09:28:45;;;;;;;3.50;1.38;;;21.30;99.90;;;;;;5092269;28;20040;-61
2023/07/13 09:31:21;;;;;;;3.25;1.40;;;21.40;99.90;;;;;;5091667;28;20093;-62
2023/07/13 09:33:48;;;;;;;5.70;1.48;;;21.40;99.90;;;;;;5090900;28;20378;-62
2023/07/13 09:36:27;;;;;;;6.10;1.48;;;21.30;99.90;;;;;;5092098;28;20039;-61
2023/07/13 09:39:18;;;;;;;5.78;1.50;;;21.10;99.90;;;;;;5086617;28;20404;-62
2023/07/13 09:41:57;;;;;;;7.32;1.80;;;20.90;99.90;;;;;;5068816;28;20071;-62
2023/07/13 09:44:38;;;;;;;3.78;1.48;;;20.80;99.90;;;;;;5088788;28;20072;-63
2023/07/13 09:47:14;;;;;;;7.80;1.30;;;20.70;99.90;;;;;;5090837;28;20039;-62
2023/07/13 09:49:40;;;;;;;3.78;1.17;;;20.70;99.90;;;;;;5090136;28;20052;-62
2023/07/13 09:52:12;;;;;;;3.47;1.20;;;20.50;99.90;;;;;;5090609;28;20105;-63
2023/07/13 09:54:38;;;;;;;3.03;1.00;;;20.50;99.90;;;;;;5073138;28;20499;-63
2023/07/13 09:57:14;;;;;;;4.32;1.20;;;20.50;99.90;;;;;;5074409;28;20081;-63
2023/07/13 09:59:43;;;;;;;4.95;1.30;;;20.70;99.90;;;;;;5073173;28;20039;-62
2023/07/13 10:02:32;;;;;;;4.40;1.13;;;20.60;99.90;;;;;;5090309;28;20502;-62
2023/07/13 10:05:07;;;;;;;5.10;1.60;;;20.50;99.90;;;;;;5089827;28;20044;-62
2023/07/13 10:07:39;;;;;;;4.80;1.30;;;20.60;99.90;;;;;;5089449;28;20044;-62
2023/07/13 10:10:17;;;;;;;3.35;1.00;;;20.60;99.90;;;;;;5088100;28;20108;-63
2023/07/13 10:12:44;;;;;;;5.00;1.35;;;20.50;99.90;;;;;;5090843;28;20161;-62
2023/07/13 10:15:30;;;;;;;5.03;1.30;;;20.50;99.90;;;;;;5090506;28;20036;-62
2023/07/13 10:17:57;;;;;;;5.50;1.52;;;20.50;99.90;;;;;;5085686;28;20044;-62
2023/07/13 10:20:24;;;;;;;6.18;1.50;;;20.60;99.90;;;;;;5090946;28;20085;-62
2023/07/13 10:23:03;;;;;;;3.55;1.33;;;20.70;99.90;;;;;;5091070;28;20036;-62
2023/07/13 10:25:38;;;;;;;4.32;1.83;;;20.70;99.90;;;;;;5091640;28;20058;-62
2023/07/13 10:28:25;;;;;;;4.50;1.45;;;20.90;99.90;;;;;;5089261;28;20206;-63
2023/07/13 10:30:54;;;;;;;3.25;1.30;;;20.90;99.90;;;;;;5089730;28;20087;-62
2023/07/13 10:33:22;;;;;;;6.22;1.83;;;21.00;99.90;;;;;;5089978;28;20032;-62
2023/07/13 10:35:52;;;;;;;3.83;1.77;;;21.10;99.90;;;;;;5090054;28;20075;-62
2023/07/13 10:38:23;;;;;;;4.38;1.55;;;21.20;99.90;;;;;;5089270;28;20038;-62
2023/07/13 10:41:03;;;;;;;5.97;1.60;;;21.20;99.90;;;;;;5071609;28;20044;-62
2023/07/13 10:43:38;;;;;;;4.57;1.30;;;21.00;99.90;;;;;;5089875;28;20081;-62
2023/07/13 10:46:07;;;;;;;3.85;1.50;;;21.10;99.90;;;;;;5089682;28;20497;-62
2023/07/13 10:48:36;;;;;;;4.60;1.50;;;21.00;99.90;;;;;;5089094;28;20052;-62
2023/07/13 10:51:06;;;;;;;4.53;1.40;;;21.10;99.90;;;;;;5090057;28;20075;-62
2023/07/13 10:53:37;;;;;;;5.00;1.40;;;21.30;99.40;;;;;;5090030;28;20032;-62
2023/07/13 10:56:16;;;;;;;4.30;1.67;;;21.30;99.00;;;;;;5089488;28;20047;-62
2023/07/13 10:58:43;;;;;;;3.90;1.30;;;21.20;98.90;;;;;;5090822;28;20374;-62
2023/07/13 11:01:13;;;;;;;7.15;1.70;;;21.10;98.90;;;;;;5076566;28;20054;-62
2023/07/13 11:04:03;;;;;;;3.38;1.35;;;21.20;98.90;;;;;;5094933;28;20539;-62
2023/07/13 11:06:29;;;;;;;3.50;1.33;;;21.30;99.20;;;;;;5090038;28;20051;-62
2023/07/13 11:08:57;;;;;;;3.95;1.20;;;21.20;98.00;;;;;;5113894;27;20489;-62
2023/07/13 11:11:26;;;;;;;5.30;1.48;;;21.20;98.30;;;;;;5084889;28;20122;-62
2023/07/13 11:13:51;;;;;;;3.85;1.48;;;21.20;98.50;;;;;;5093798;28;20102;-62
2023/07/13 11:16:20;;;;;;;4.15;1.58;;;21.10;98.70;;;;;;5075294;28;20082;-62
2023/07/13 11:18:50;;;;;;;4.88;1.80;;;21.30;98.40;;;;;;5089137;28;20047;-62
2023/07/13 11:21:26;;;;;;;4.30;1.58;;;21.30;98.50;;;;;;5094831;28;20046;-62
2023/07/13 11:24:01;;;;;;;5.20;1.60;;;21.50;98.70;;;;;;5093205;28;20047;-62
2023/07/13 11:26:42;;;;;;;4.00;1.45;;;21.60;98.10;;;;;;5093831;28;20043;-63
2023/07/13 11:29:15;;;;;;;4.00;1.30;;;21.60;97.20;;;;;;5094360;28;20044;-64
2023/07/13 11:31:44;;;;;;;6.80;1.58;;;21.50;96.90;;;;;;5094328;28;20044;-63
2023/07/13 11:34:15;;;;;;;5.95;1.60;;;21.50;96.50;;;;;;5093590;28;20040;-63
2023/07/13 11:36:44;;;;;;;8.20;1.42;;;21.60;96.40;;;;;;5075704;28;20032;-63
2023/07/13 11:39:20;;;;;;;6.93;1.75;;;21.70;96.30;;;;;;5093796;28;20388;-64
2023/07/13 11:41:57;;;;;;;6.25;1.80;;;21.70;96.80;;;;;;5094213;28;20040;-63
2023/07/13 11:44:25;;;;;;;5.32;1.90;;;21.60;95.70;;;;;;5117021;27;20028;-62
2023/07/13 11:47:01;;;;;;;5.13;1.85;;;21.40;95.90;;;;;;5093957;28;20180;-63
2023/07/13 11:49:30;;;;;;;5.32;1.52;;;21.40;96.70;;;;;;5094034;28;20498;-63
2023/07/13 11:51:57;;;;;;;4.40;1.55;;;21.70;97.70;;;;;;5075499;28;20043;-63
2023/07/13 11:54:33;;;;;;;8.50;1.92;;;22.00;96.90;;;;;;5092970;28;20170;-63
2023/07/13 11:57:10;;;;;;;7.25;1.80;;;22.10;96.90;;;;;;5092026;28;20138;-63
2023/07/13 11:59:40;;;;;;;6.47;1.67;;;21.90;96.00;;;;;;5093075;28;20480;-63
2023/07/13 12:02:30;;;;;;;7.18;2.15;;;21.60;96.10;;;;;;5092270;28;20496;-62
2023/07/13 12:04:57;;;;;;;8.45;3.00;;;21.10;99.90;;;;;;5090810;28;20520;-62
2023/07/13 12:37:25;;;;;;;9.93;2.88;;;18.10;99.90;;;;;;5090857;28;20031;-65
2023/07/13 12:39:51;;;;;;;7.38;3.05;;;18.00;99.90;;;;;;5091395;28;20635;-64
2023/07/13 12:42:28;;;;;;;8.32;3.13;;;18.00;99.90;;;;;;5091915;28;20085;-64
2023/07/13 12:45:00;;;;;;;10.43;2.78;;;18.00;99.90;;;;;;5092004;28;20079;-65
2023/07/13 12:47:26;;;;;;;6.72;2.80;;;18.00;99.90;;;;;;5091084;28;20040;-64
2023/07/13 12:50:01;;;;;;;8.85;3.05;;;18.10;99.90;;;;;;5091532;28;20044;-64
2023/07/13 12:52:33;;;;;;;6.72;2.95;;;18.40;99.90;;;;;;5093297;28;20040;-64
2023/07/13 12:55:21;;;;;;;5.80;1.80;;;18.70;99.90;;;;;;5091352;28;20138;-65
2023/07/13 12:57:51;;;;;;;8.20;2.30;;;18.70;99.90;;;;;;5091842;28;20047;-64
2023/07/13 13:00:34;;;;;;;8.65;2.53;;;18.60;99.90;;;;;;5091785;28;20388;-64
2023/07/13 13:03:15;;;;;;;8.75;2.75;;;18.70;99.90;;;;;;5091277;28;20492;-65
2023/07/13 13:05:42;;;;;;;7.03;2.75;;;18.70;99.90;;;;;;5091443;28;20051;-65
2023/07/13 13:08:14;;;;;;;6.78;2.40;;;18.80;99.90;;;;;;5091286;28;20052;-65
2023/07/13 13:10:40;;;;;;;8.80;2.63;;;19.20;99.90;;;;;;5091449;28;20039;-65
2023/07/13 13:13:05;;;;;;;4.80;1.90;;;19.50;99.90;;;;;;5093129;28;20036;-65
2023/07/13 13:15:32;;;;;;;5.78;2.17;;;19.60;99.90;;;;;;5073631;28;20459;-66
2023/07/13 13:17:58;;;;;;;6.18;1.90;;;19.50;99.90;;;;;;5091385;28;20044;-65
2023/07/13 13:20:25;;;;;;;6.28;1.85;;;19.60;99.90;;;;;;5091512;28;20054;-65
2023/07/13 13:22:52;;;;;;;5.07;2.00;;;19.90;99.90;;;;;;5090759;28;20044;-65
2023/07/13 13:25:18;;;;;;;8.30;2.15;;;20.10;99.90;;;;;;5092798;28;20047;-66
2023/07/13 13:27:45;;;;;;;5.82;1.95;;;20.40;99.90;;;;;;5089907;28;20492;-65
2023/07/13 13:30:16;;;;;;;6.60;2.33;;;20.60;99.90;;;;;;5089614;28;20040;-65
2023/07/13 13:32:44;;;;;;;7.63;2.60;;;20.80;99.90;;;;;;5081187;28;20494;-64
2023/07/13 13:35:15;;;;;;;7.38;2.47;;;20.90;99.90;;;;;;5088315;28;20426;-65
2023/07/13 13:37:41;;;;;;;5.32;1.98;;;20.90;99.90;;;;;;5087853;28;20040;-65
2023/07/13 13:40:16;;;;;;;8.68;2.20;;;20.90;99.90;;;;;;5088712;28;20043;-66
2023/07/13 13:42:41;;;;;;;5.70;1.90;;;21.00;99.90;;;;;;5086639;28;20044;-64
2023/07/13 13:45:09;;;;;;;5.38;2.13;;;21.10;99.90;;;;;;5086281;28;20491;-65
2023/07/13 13:47:36;;;;;;;6.90;2.20;;;21.10;99.90;;;;;;5087674;28;20035;-65
2023/07/13 13:50:11;;;;;;;5.43;1.92;;;21.10;99.90;;;;;;5088527;28;20428;-65
2023/07/13 13:52:37;;;;;;;7.18;2.33;;;21.20;99.90;;;;;;5088667;28;20420;-65
2023/07/13 13:55:12;;;;;;;7.40;2.30;;;21.30;99.90;;;;;;5071115;28;20047;-66
2023/07/13 13:57:38;;;;;;;7.07;2.33;;;21.50;99.90;;;;;;5085180;28;20028;-66